createdAt,value
2023-03-26T00:02:46.031Z,4.33
2023-03-26T00:07:48.768Z,6.23
2023-03-26T00:12:51.716Z,3.47
2023-03-26T00:17:54.485Z,5.77
2023-03-26T00:22:56.868Z,5.67
2023-03-26T00:27:59.250Z,5.67
2023-03-26T00:33:02.467Z,11.30
2023-03-26T00:38:04.825Z,6.43
2023-03-26T00:43:18.635Z,5.33
2023-03-26T00:48:31.364Z,7.30
2023-03-26T00:53:41.262Z,6.40
2023-03-26T00:58:44.273Z,9.40
2023-03-26T01:04:04.898Z,4.30
2023-03-26T01:09:21.571Z,4.53
2023-03-26T01:14:26.901Z,4.30
2023-03-26T01:19:34.187Z,3.30
2023-03-26T01:24:37.575Z,3.03
2023-03-26T01:30:24.242Z,3.23
2023-03-26T01:35:45.908Z,2.50
2023-03-26T01:40:52.138Z,5.00
2023-03-26T01:45:56.503Z,1.93
2023-03-26T01:50:59.084Z,3.00
2023-03-26T01:56:29.292Z,3.80
2023-03-26T02:02:04.845Z,3.27
2023-03-26T02:07:14.838Z,4.53
2023-03-26T02:12:18.705Z,4.00
2023-03-26T02:17:24.338Z,3.77
2023-03-26T02:22:30.200Z,5.77
2023-03-26T02:27:34.367Z,6.27
2023-03-26T02:32:36.993Z,4.60
2023-03-26T02:37:40.095Z,3.33
2023-03-26T02:42:50.779Z,2.70
2023-03-26T02:47:53.191Z,4.47
2023-03-26T02:53:16.105Z,7.87
2023-03-26T02:58:25.251Z,2.30
2023-03-26T03:03:28.017Z,1.53
2023-03-26T03:08:39.256Z,1.30
2023-03-26T03:13:44.785Z,1.93
2023-03-26T03:18:54.541Z,1.43
2023-03-26T03:24:00.209Z,3.87
2023-03-26T03:29:06.579Z,1.47
2023-03-26T03:34:10.899Z,5.73
2023-03-26T03:39:19.706Z,2.53
2023-03-26T03:44:22.182Z,3.20
2023-03-26T03:49:24.958Z,7.20
2023-03-26T03:54:28.312Z,2.63
2023-03-26T03:59:47.839Z,2.03
2023-03-26T04:04:52.851Z,3.27
2023-03-26T04:09:57.210Z,3.33
2023-03-26T04:15:01.368Z,2.90
2023-03-26T04:20:06.483Z,2.43
2023-03-26T04:25:11.128Z,2.53
2023-03-26T04:30:21.239Z,3.87
2023-03-26T04:35:35.978Z,3.63
2023-03-26T04:40:42.285Z,1.47
2023-03-26T04:46:10.535Z,1.43
2023-03-26T04:51:25.806Z,4.67
2023-03-26T04:57:00.996Z,3.00
2023-03-26T05:02:23.253Z,2.17
2023-03-26T05:07:28.580Z,4.03
2023-03-26T05:12:32.733Z,3.67
2023-03-26T05:17:42.977Z,2.67
2023-03-26T05:22:53.842Z,1.20
2023-03-26T05:28:07.749Z,1.83
2023-03-26T05:33:27.477Z,1.60
2023-03-26T05:38:37.673Z,1.70
2023-03-26T05:43:44.867Z,6.43
2023-03-26T05:48:52.075Z,2.73
2023-03-26T05:53:54.712Z,2.40
2023-03-26T05:59:16.151Z,1.00
2023-03-26T06:04:41.071Z,2.00
2023-03-26T06:10:05.917Z,1.50
2023-03-26T06:15:09.264Z,1.90
2023-03-26T06:20:30.129Z,3.43
2023-03-26T06:25:35.878Z,1.67
2023-03-26T06:31:13.542Z,1.87
2023-03-26T06:36:24.916Z,1.43
2023-03-26T06:41:27.461Z,1.50
2023-03-26T06:46:37.025Z,1.90
2023-03-26T06:51:58.032Z,2.67
2023-03-26T06:57:18.808Z,1.40
2023-03-26T07:02:41.363Z,2.60
2023-03-26T07:08:02.943Z,2.50
2023-03-26T07:13:23.531Z,4.27
2023-03-26T07:18:25.869Z,0.70
2023-03-26T07:23:28.936Z,3.13
2023-03-26T07:29:04.694Z,1.70
2023-03-26T07:34:40.664Z,6.07
2023-03-26T07:39:59.181Z,2.77
2023-03-26T07:45:14.613Z,2.50
2023-03-26T07:50:26.402Z,1.47
2023-03-26T07:56:00.665Z,15.03
2023-03-26T08:01:42.134Z,1.93
2023-03-26T08:07:11.376Z,2.47
2023-03-26T08:13:15.546Z,2.33
2023-03-26T08:18:44.630Z,2.20
2023-03-26T08:24:08.257Z,1.70
2023-03-26T08:29:41.269Z,5.67
2023-03-26T08:34:44.204Z,1.80
2023-03-26T08:39:47.773Z,3.07
2023-03-26T08:45:09.084Z,1.50
2023-03-26T08:50:43.200Z,2.67
2023-03-26T08:55:48.291Z,7.10
2023-03-26T09:01:08.547Z,2.90
2023-03-26T09:06:21.036Z,1.23
2023-03-26T09:11:29.305Z,4.23
2023-03-26T09:16:55.942Z,1.43
2023-03-26T09:22:10.560Z,8.00
2023-03-26T09:27:24.929Z,5.23
2023-03-26T09:32:52.105Z,3.67
2023-03-26T09:38:12.299Z,3.17
2023-03-26T09:43:46.826Z,6.23
2023-03-26T09:49:03.733Z,16.30
2023-03-26T09:54:18.461Z,4.93
2023-03-26T09:59:42.958Z,3.83
2023-03-26T10:05:08.356Z,7.13
2023-03-26T10:10:41.618Z,3.40
2023-03-26T10:16:08.089Z,0.93
2023-03-26T10:21:34.787Z,1.20
2023-03-26T10:27:09.711Z,2.50
2023-03-26T10:32:08.610Z,0.93
2023-03-26T10:37:31.271Z,2.13
2023-03-26T10:43:12.814Z,1.80
2023-03-26T10:48:43.053Z,0.70
2023-03-26T10:53:53.808Z,1.17
2023-03-26T10:58:57.168Z,2.97
2023-03-26T11:04:27.988Z,1.37
2023-03-26T11:10:09.278Z,1.50
2023-03-26T11:15:32.652Z,3.20
2023-03-26T11:20:47.215Z,1.17
2023-03-26T11:26:13.601Z,2.97
2023-03-26T11:31:36.890Z,2.00
2023-03-26T11:36:43.849Z,2.23
2023-03-26T11:41:47.454Z,4.57
2023-03-26T11:47:10.065Z,3.40
2023-03-26T11:52:12.617Z,2.60
2023-03-26T11:57:33.393Z,1.37
2023-03-26T12:02:40.614Z,0.80
2023-03-26T12:08:00.209Z,3.33
2023-03-26T12:13:16.249Z,4.70
2023-03-26T12:18:26.522Z,11.13
2023-03-26T12:23:42.378Z,2.30
2023-03-26T12:28:47.078Z,1.80
2023-03-26T12:34:13.511Z,1.30
2023-03-26T12:40:09.140Z,0.80
2023-03-26T12:45:02.511Z,2.40
2023-03-26T12:50:09.925Z,1.83
2023-03-26T12:55:30.385Z,2.13
2023-03-26T13:00:43.557Z,2.23
2023-03-26T13:06:11.674Z,0.80
2023-03-26T13:11:25.538Z,1.23
2023-03-26T13:16:35.344Z,1.27
2023-03-26T13:22:05.726Z,1.70
2023-03-26T13:27:08.777Z,1.47
2023-03-26T13:32:42.505Z,2.00
2023-03-26T13:37:53.395Z,1.57
2023-03-26T13:43:11.187Z,1.20
2023-03-26T13:48:19.234Z,1.57
2023-03-26T13:53:28.516Z,4.77
2023-03-26T13:58:52.505Z,3.23
2023-03-26T14:04:06.358Z,2.83
2023-03-26T14:09:29.690Z,12.77
2023-03-26T14:14:49.011Z,16.03
2023-03-26T14:20:22.520Z,56.07
2023-03-26T14:25:51.044Z,19.07
2023-03-26T14:31:14.539Z,69.43
2023-03-26T14:36:28.030Z,113.10
2023-03-26T14:41:49.102Z,5.90
2023-03-26T14:46:57.688Z,11.67
2023-03-26T14:52:27.962Z,29.47
2023-03-26T14:57:38.903Z,18.40
2023-03-26T15:03:09.177Z,3.70
2023-03-26T15:08:34.356Z,12.77
2023-03-26T15:13:40.799Z,7.97
2023-03-26T15:19:02.122Z,13.77
2023-03-26T15:24:37.829Z,5.67
2023-03-26T15:29:49.250Z,7.80
2023-03-26T15:35:07.175Z,4.00
2023-03-26T15:40:43.036Z,9.70
2023-03-26T15:45:56.341Z,8.33
2023-03-26T15:51:17.954Z,25.87
2023-03-26T15:56:26.048Z,6.33
2023-03-26T16:02:02.805Z,66.57
2023-03-26T16:07:23.905Z,47.63
2023-03-26T16:12:33.015Z,12.77
2023-03-26T16:18:11.944Z,48.70
2023-03-26T16:23:47.509Z,16.57
2023-03-26T16:29:03.904Z,9.00
2023-03-26T16:34:08.325Z,28.43
2023-03-26T16:39:23.820Z,31.10
2023-03-26T16:44:37.878Z,21.07
2023-03-26T16:50:08.820Z,7.83
2023-03-26T16:55:43.185Z,5.73
2023-03-26T17:00:55.107Z,4.20
2023-03-26T17:06:34.051Z,5.03
2023-03-26T17:12:07.270Z,4.60
2023-03-26T17:17:40.294Z,8.50
2023-03-26T17:22:47.722Z,4.33
2023-03-26T17:28:17.924Z,16.93
2023-03-26T17:33:26.842Z,28.27
2023-03-26T17:38:29.093Z,19.67
2023-03-26T17:43:51.744Z,38.97
2023-03-26T17:49:12.026Z,60.47
2023-03-26T17:54:32.555Z,29.77
2023-03-26T17:59:38.797Z,11.77
2023-03-26T18:04:45.721Z,11.97
2023-03-26T18:10:17.225Z,14.90
2023-03-26T18:15:46.760Z,63.23
2023-03-26T18:20:51.225Z,42.23
2023-03-26T18:26:09.574Z,65.03
2023-03-26T18:31:23.016Z,49.40
2023-03-26T18:36:28.179Z,42.40
2023-03-26T18:41:41.723Z,57.03
2023-03-26T18:46:44.910Z,49.43
2023-03-26T18:51:56.525Z,47.57
2023-03-26T18:57:16.156Z,36.03
2023-03-26T19:02:20.589Z,21.90
2023-03-26T19:07:25.955Z,20.27
2023-03-26T19:12:33.199Z,38.87
2023-03-26T19:17:46.003Z,30.27
2023-03-26T19:22:49.767Z,28.50
2023-03-26T19:27:52.568Z,50.20
2023-03-26T19:32:55.729Z,61.10
2023-03-26T19:38:26.266Z,78.07
2023-03-26T19:43:28.997Z,114.67
2023-03-26T19:48:46.197Z,73.50
2023-03-26T19:53:55.036Z,77.20
2023-03-26T19:58:57.541Z,132.63
2023-03-26T20:04:04.082Z,110.27
2023-03-26T20:09:06.428Z,104.53
2023-03-26T20:14:16.941Z,108.40
2023-03-26T20:19:20.577Z,101.43
2023-03-26T20:24:24.698Z,89.53
2023-03-26T20:29:28.709Z,87.40
2023-03-26T20:34:32.263Z,86.07
2023-03-26T20:39:34.729Z,143.47
2023-03-26T20:44:37.296Z,190.53
2023-03-26T20:49:40.298Z,219.50
2023-03-26T20:54:42.795Z,157.30
2023-03-26T20:59:45.687Z,99.27
2023-03-26T21:04:48.305Z,84.87
2023-03-26T21:09:50.927Z,74.27
2023-03-26T21:14:55.867Z,70.47
2023-03-26T21:20:06.520Z,80.43
2023-03-26T21:25:17.312Z,270.00
2023-03-26T21:30:20.083Z,142.27
2023-03-26T21:35:22.823Z,97.03
2023-03-26T21:40:25.902Z,126.33
2023-03-26T21:45:28.834Z,98.40
2023-03-26T21:50:31.585Z,62.07
2023-03-26T21:56:00.138Z,30.90
2023-03-26T22:01:31.513Z,21.67
2023-03-26T22:06:43.801Z,19.80
2023-03-26T22:11:46.312Z,13.60
2023-03-26T22:16:48.766Z,13.13
2023-03-26T22:21:51.457Z,15.40
2023-03-26T22:26:53.842Z,14.53
2023-03-26T22:31:56.395Z,12.60
2023-03-26T22:36:58.670Z,16.27
2023-03-26T22:42:03.719Z,15.87
2023-03-26T22:47:06.049Z,13.30
2023-03-26T22:52:08.544Z,18.43
2023-03-26T22:57:10.997Z,15.43
2023-03-26T23:02:13.611Z,19.77
2023-03-26T23:07:15.930Z,19.90
2023-03-26T23:12:18.614Z,18.27
2023-03-26T23:17:21.296Z,13.27
2023-03-26T23:22:23.682Z,17.00
2023-03-26T23:27:26.150Z,11.57
2023-03-26T23:32:28.539Z,12.70
2023-03-26T23:37:34.907Z,15.93
2023-03-26T23:42:37.719Z,19.17
2023-03-26T23:47:42.261Z,23.20
2023-03-26T23:52:45.862Z,15.37
2023-03-26T23:57:48.596Z,19.87
